Time;durP1;ratioP1;P1;durP2;ratioP2;P2;SDS_P1;SDS_P2;PMS_P1;PMS_P2;Temp;Humidity;BMP_temperature;BMP_pressure;BME280_temperature;BME280_humidity;BME280_pressure;Samples;Min_cycle;Max_cycle;Signal;HPM_P1;HPM_P2
2022/03/03 00:02:15;;;;;;;23.73;14.00;;;;;;;;;;5053718;28;20445;-69
2022/03/03 00:04:41;;;;;;;21.87;13.40;;;;;;;;;;5053424;28;20495;-70
2022/03/03 00:07:07;;;;;;;22.77;14.13;;;;;;;;;;5052405;28;20861;-61
2022/03/03 00:09:33;;;;;;;26.43;13.63;;;;;;;;;;5053577;28;20781;-61
2022/03/03 00:11:59;;;;;;;24.53;13.80;;;;;;;;;;5053298;28;20892;-62
2022/03/03 00:14:25;;;;;;;18.17;13.73;;;;;;;;;;5053497;28;20428;-61
2022/03/03 00:16:50;;;;;;;24.53;13.70;;;;;;;;;;5052183;28;20418;-65
2022/03/03 00:19:16;;;;;;;23.37;14.67;;;;;;;;;;5053376;28;20905;-70
2022/03/03 00:21:42;;;;;;;22.50;13.73;;;;;;;;;;5053309;28;20563;-73
2022/03/03 00:24:09;;;;;;;24.97;13.90;;;;;;;;;;5053355;28;20410;-62
2022/03/03 00:26:34;;;;;;;19.27;12.00;;;;;;;;;;5053252;28;20575;-68
2022/03/03 00:29:01;;;;;;;23.87;13.70;;;;;;;;;;5053152;28;20898;-65
2022/03/03 00:31:27;;;;;;;22.30;13.80;;;;;;;;;;5053077;28;20893;-67
2022/03/03 00:33:53;;;;;;;21.07;13.53;;;;;;;;;;5053131;28;20410;-63
2022/03/03 00:36:18;;;;;;;16.47;11.93;;;;;;;;;;5053117;28;20414;-62
2022/03/03 00:38:44;;;;;;;18.53;12.60;;;;;;;;;;5053123;28;20402;-63
2022/03/03 00:41:10;;;;;;;19.23;12.23;;;;;;;;;;5052887;28;20445;-60
2022/03/03 00:43:36;;;;;;;22.43;13.20;;;;;;;;;;5053077;28;20431;-62
2022/03/03 00:46:03;;;;;;;20.60;12.40;;;;;;;;;;5052995;28;20560;-67
2022/03/03 00:48:29;;;;;;;20.00;12.43;;;;;;;;;;5053047;28;20459;-74
2022/03/03 00:50:55;;;;;;;21.07;12.60;;;;;;;;;;5052896;28;20418;-72
2022/03/03 00:53:23;;;;;;;23.00;12.93;;;;;;;;;;5053019;28;20411;-72
2022/03/03 00:55:49;;;;;;;23.23;13.50;;;;;;;;;;5052962;28;20430;-71
2022/03/03 00:58:15;;;;;;;18.47;12.50;;;;;;;;;;5051643;28;20443;-60
2022/03/03 01:00:41;;;;;;;20.10;12.63;;;;;;;;;;5052930;28;20406;-63
2022/03/03 01:03:07;;;;;;;21.27;12.90;;;;;;;;;;5052948;28;20416;-60
2022/03/03 01:05:33;;;;;;;23.17;13.63;;;;;;;;;;5052637;28;20569;-60
2022/03/03 01:07:59;;;;;;;18.63;12.97;;;;;;;;;;5052880;28;20410;-60
2022/03/03 01:10:25;;;;;;;24.17;14.47;;;;;;;;;;5052772;28;20807;-62
2022/03/03 01:12:51;;;;;;;22.77;13.83;;;;;;;;;;5052733;28;21000;-63
2022/03/03 01:15:17;;;;;;;19.90;13.13;;;;;;;;;;5052739;28;20880;-63
2022/03/03 01:17:43;;;;;;;20.83;12.93;;;;;;;;;;5052735;28;20411;-69
2022/03/03 01:20:09;;;;;;;21.23;12.50;;;;;;;;;;5052682;28;20418;-63
2022/03/03 01:22:35;;;;;;;20.13;12.60;;;;;;;;;;5052659;28;20415;-60
2022/03/03 01:25:01;;;;;;;23.87;13.20;;;;;;;;;;5052495;28;20473;-64
2022/03/03 01:27:28;;;;;;;20.30;12.40;;;;;;;;;;5052576;28;20434;-64
2022/03/03 01:29:54;;;;;;;21.60;12.80;;;;;;;;;;5052584;28;20387;-61
2022/03/03 01:32:20;;;;;;;19.20;13.37;;;;;;;;;;5052581;28;20499;-74
2022/03/03 01:34:46;;;;;;;21.93;12.90;;;;;;;;;;5052679;28;20444;-63
2022/03/03 01:37:12;;;;;;;18.40;12.53;;;;;;;;;;5052594;28;20412;-61
2022/03/03 01:39:38;;;;;;;21.00;12.80;;;;;;;;;;5052553;28;20402;-64
2022/03/03 01:42:04;;;;;;;21.03;13.37;;;;;;;;;;5052404;28;20453;-60
2022/03/03 01:44:30;;;;;;;22.87;13.83;;;;;;;;;;5052544;28;20414;-62
2022/03/03 01:46:57;;;;;;;20.67;13.63;;;;;;;;;;5051243;28;20426;-60
2022/03/03 01:49:23;;;;;;;23.60;13.83;;;;;;;;;;5052365;28;20419;-60
2022/03/03 01:51:50;;;;;;;24.90;14.37;;;;;;;;;;5053422;28;20502;-60
2022/03/03 01:54:16;;;;;;;25.77;14.07;;;;;;;;;;5056014;28;20922;-61
2022/03/03 01:56:43;;;;;;;23.70;14.43;;;;;;;;;;5056082;28;20453;-60
2022/03/03 01:59:09;;;;;;;22.07;14.60;;;;;;;;;;5055975;28;20500;-60
2022/03/03 02:01:36;;;;;;;23.03;13.90;;;;;;;;;;5055893;28;20414;-63
2022/03/03 02:04:06;;;;;;;23.67;13.40;;;;;;;;;;5055848;28;20778;-60
2022/03/03 02:06:33;;;;;;;29.27;14.60;;;;;;;;;;5055682;28;20482;-60
2022/03/03 02:08:59;;;;;;;19.97;12.27;;;;;;;;;;5055944;28;20414;-75
2022/03/03 02:11:26;;;;;;;25.60;14.17;;;;;;;;;;5055927;28;20402;-75
2022/03/03 02:13:52;;;;;;;23.50;14.53;;;;;;;;;;5055748;28;20409;-74
2022/03/03 02:16:18;;;;;;;26.57;14.90;;;;;;;;;;5055692;28;20750;-71
2022/03/03 02:18:44;;;;;;;19.93;12.70;;;;;;;;;;5055579;28;20407;-73
2022/03/03 02:21:15;;;;;;;20.67;13.23;;;;;;;;;;5055567;28;20602;-71
2022/03/03 02:23:41;;;;;;;19.77;12.97;;;;;;;;;;5055670;28;20434;-74
2022/03/03 02:26:18;;;;;;;22.77;13.57;;;;;;;;;;5055392;28;20471;-67
2022/03/03 02:28:44;;;;;;;19.20;12.70;;;;;;;;;;5055405;28;20464;-74
2022/03/03 02:31:10;;;;;;;22.80;14.00;;;;;;;;;;5055296;28;20446;-70
2022/03/03 02:33:36;;;;;;;22.10;13.93;;;;;;;;;;5055270;28;20419;-60
2022/03/03 02:36:28;;;;;;;22.30;14.23;;;;;;;;;;5055165;28;20423;-68
2022/03/03 02:38:55;;;;;;;20.93;13.40;;;;;;;;;;5055110;28;20431;-73
2022/03/03 02:41:22;;;;;;;24.20;13.97;;;;;;;;;;5055284;28;20492;-70
2022/03/03 02:43:48;;;;;;;22.80;13.60;;;;;;;;;;5053972;28;20893;-63
2022/03/03 02:46:14;;;;;;;18.40;12.30;;;;;;;;;;5054886;28;20532;-68
2022/03/03 02:48:40;;;;;;;24.90;13.80;;;;;;;;;;5055113;28;20438;-63
2022/03/03 02:51:07;;;;;;;23.63;13.80;;;;;;;;;;5055030;28;20434;-60
2022/03/03 02:53:33;;;;;;;19.90;12.80;;;;;;;;;;5054989;28;20497;-60
2022/03/03 02:55:59;;;;;;;19.30;13.40;;;;;;;;;;5054791;28;20426;-60
2022/03/03 02:58:25;;;;;;;25.27;14.57;;;;;;;;;;5054886;28;20406;-63
2022/03/03 03:00:51;;;;;;;22.70;14.20;;;;;;;;;;5053459;28;20790;-59
2022/03/03 03:03:18;;;;;;;20.30;13.07;;;;;;;;;;5053631;28;20807;-72
2022/03/03 03:05:45;;;;;;;23.70;13.57;;;;;;;;;;5053148;28;20603;-64
2022/03/03 03:08:11;;;;;;;20.60;12.93;;;;;;;;;;5054703;28;20406;-64
2022/03/03 03:10:37;;;;;;;20.87;12.20;;;;;;;;;;5054460;28;20529;-68
2022/03/03 03:13:04;;;;;;;24.73;14.10;;;;;;;;;;5054718;28;20411;-64
2022/03/03 03:15:30;;;;;;;23.70;14.10;;;;;;;;;;5054574;28;20448;-74
2022/03/03 03:17:56;;;;;;;22.13;13.23;;;;;;;;;;5054522;28;20429;-75
2022/03/03 03:20:22;;;;;;;23.30;15.00;;;;;;;;;;5054503;28;20427;-76
2022/03/03 03:22:49;;;;;;;23.87;14.90;;;;;;;;;;5054301;28;20731;-76
2022/03/03 03:25:15;;;;;;;27.93;13.60;;;;;;;;;;5054259;28;20474;-75
2022/03/03 03:27:42;;;;;;;19.43;13.37;;;;;;;;;;5054283;28;21014;-75
2022/03/03 03:30:12;;;;;;;22.83;13.60;;;;;;;;;;5054037;28;20435;-76
2022/03/03 03:32:38;;;;;;;21.80;13.10;;;;;;;;;;5054141;28;20394;-76
2022/03/03 03:35:05;;;;;;;26.67;14.90;;;;;;;;;;5054148;28;20448;-68
2022/03/03 03:37:31;;;;;;;23.93;12.67;;;;;;;;;;5054120;28;20477;-61
2022/03/03 03:39:57;;;;;;;25.47;15.43;;;;;;;;;;5054169;28;20410;-61
2022/03/03 03:42:24;;;;;;;19.47;12.07;;;;;;;;;;5053985;28;20403;-60
2022/03/03 03:44:50;;;;;;;25.03;13.37;;;;;;;;;;5053908;28;20522;-60
2022/03/03 03:47:16;;;;;;;23.93;13.57;;;;;;;;;;5053762;28;20422;-64
2022/03/03 03:49:42;;;;;;;23.67;13.90;;;;;;;;;;5053838;28;20414;-60
2022/03/03 03:52:08;;;;;;;26.27;15.80;;;;;;;;;;5053758;28;20413;-60
2022/03/03 03:54:34;;;;;;;20.40;13.43;;;;;;;;;;5053791;28;20482;-59
2022/03/03 03:57:00;;;;;;;21.13;14.80;;;;;;;;;;5053676;28;20530;-62
2022/03/03 03:59:26;;;;;;;26.10;14.83;;;;;;;;;;5053731;28;20478;-61
2022/03/03 04:01:52;;;;;;;34.67;13.90;;;;;;;;;;5053575;28;20410;-61
2022/03/03 04:04:18;;;;;;;23.23;13.10;;;;;;;;;;5053797;28;20414;-76
2022/03/03 04:06:44;;;;;;;23.30;14.63;;;;;;;;;;5053394;28;20505;-65
2022/03/03 04:09:10;;;;;;;23.00;14.20;;;;;;;;;;5052238;28;20907;-72
2022/03/03 04:11:36;;;;;;;22.47;14.47;;;;;;;;;;5053461;28;20427;-68
2022/03/03 04:14:02;;;;;;;28.30;13.80;;;;;;;;;;5053320;28;20871;-63
2022/03/03 04:16:29;;;;;;;22.73;13.90;;;;;;;;;;5053613;28;20418;-68
2022/03/03 04:18:55;;;;;;;23.13;14.13;;;;;;;;;;5053408;28;20410;-75
2022/03/03 04:21:21;;;;;;;22.83;14.00;;;;;;;;;;5053329;28;20403;-73
2022/03/03 04:23:47;;;;;;;25.73;14.27;;;;;;;;;;5053273;28;20420;-69
2022/03/03 04:26:13;;;;;;;25.43;14.30;;;;;;;;;;5051966;28;20501;-70
2022/03/03 04:28:39;;;;;;;23.57;13.87;;;;;;;;;;5053184;28;20407;-69
2022/03/03 04:31:05;;;;;;;22.77;14.40;;;;;;;;;;5053177;28;20772;-67
2022/03/03 04:33:31;;;;;;;30.90;14.20;;;;;;;;;;5053261;28;20547;-60
2022/03/03 04:35:57;;;;;;;21.90;14.73;;;;;;;;;;5053301;28;20964;-59
2022/03/03 04:38:24;;;;;;;23.43;13.63;;;;;;;;;;5053141;28;20494;-63
2022/03/03 04:40:50;;;;;;;27.60;15.60;;;;;;;;;;5051874;28;20518;-61
2022/03/03 04:43:16;;;;;;;24.60;15.43;;;;;;;;;;5053101;28;20875;-60
2022/03/03 04:45:42;;;;;;;22.70;13.87;;;;;;;;;;5053021;28;20653;-66
2022/03/03 04:48:09;;;;;;;26.47;14.60;;;;;;;;;;5053011;28;20425;-59
2022/03/03 04:50:35;;;;;;;27.33;14.97;;;;;;;;;;5051643;28;20416;-60
2022/03/03 04:53:01;;;;;;;25.60;14.20;;;;;;;;;;5053038;28;20405;-59
2022/03/03 04:55:27;;;;;;;26.37;15.30;;;;;;;;;;5052973;28;20501;-60
2022/03/03 04:57:53;;;;;;;30.37;16.13;;;;;;;;;;5051732;28;20520;-71
2022/03/03 05:00:19;;;;;;;27.00;16.30;;;;;;;;;;5052850;28;20479;-71
2022/03/03 05:02:45;;;;;;;28.07;15.90;;;;;;;;;;5052991;28;20439;-76
2022/03/03 05:05:11;;;;;;;26.93;16.30;;;;;;;;;;5051402;28;20487;-74
2022/03/03 05:07:37;;;;;;;27.23;15.60;;;;;;;;;;5052928;28;20448;-74
2022/03/03 05:10:04;;;;;;;33.50;17.67;;;;;;;;;;5052752;28;20443;-71
2022/03/03 05:12:30;;;;;;;28.87;16.13;;;;;;;;;;5051572;28;20479;-73
2022/03/03 05:14:56;;;;;;;29.27;16.87;;;;;;;;;;5052859;28;20907;-78
2022/03/03 05:17:23;;;;;;;25.30;15.50;;;;;;;;;;5052836;28;20496;-75
2022/03/03 05:19:49;;;;;;;29.23;16.60;;;;;;;;;;5052695;28;20412;-75
2022/03/03 05:22:15;;;;;;;27.70;16.83;;;;;;;;;;5052811;28;20526;-72
2022/03/03 05:24:42;;;;;;;29.57;17.13;;;;;;;;;;5052621;28;20440;-74
2022/03/03 05:27:08;;;;;;;27.30;15.50;;;;;;;;;;5054247;28;20553;-75
2022/03/03 05:29:34;;;;;;;33.10;16.30;;;;;;;;;;5056518;28;20484;-75
2022/03/03 05:32:00;;;;;;;24.97;15.07;;;;;;;;;;5056705;28;20444;-73
2022/03/03 05:34:27;;;;;;;27.17;15.87;;;;;;;;;;5056454;28;20421;-74
2022/03/03 05:36:53;;;;;;;29.37;15.77;;;;;;;;;;5056390;28;20415;-74
2022/03/03 05:39:19;;;;;;;26.93;16.30;;;;;;;;;;5056454;28;20427;-63
2022/03/03 05:41:45;;;;;;;27.00;16.17;;;;;;;;;;5056589;28;20410;-70
2022/03/03 05:44:12;;;;;;;27.53;16.47;;;;;;;;;;5056353;28;21017;-67
2022/03/03 05:46:39;;;;;;;27.88;16.90;;;;;;;;;;5056192;28;20465;-64
2022/03/03 05:49:06;;;;;;;31.07;16.73;;;;;;;;;;5056195;28;20274;-74
2022/03/03 05:51:32;;;;;;;29.23;15.73;;;;;;;;;;5056288;28;20911;-77
2022/03/03 05:53:58;;;;;;;27.10;15.83;;;;;;;;;;5056171;28;20499;-73
2022/03/03 05:56:25;;;;;;;30.80;15.73;;;;;;;;;;5055957;28;20548;-77
2022/03/03 05:58:51;;;;;;;29.50;15.93;;;;;;;;;;5056047;28;20395;-77
2022/03/03 06:01:18;;;;;;;25.80;15.43;;;;;;;;;;5055877;28;20438;-77
2022/03/03 06:03:48;;;;;;;30.83;15.93;;;;;;;;;;5054632;28;20407;-77
2022/03/03 06:06:28;;;;;;;22.73;14.30;;;;;;;;;;5055594;28;20513;-77
2022/03/03 06:08:57;;;;;;;27.43;14.80;;;;;;;;;;5055826;28;20440;-77
2022/03/03 06:11:25;;;;;;;26.10;15.47;;;;;;;;;;5055709;28;20447;-77
2022/03/03 06:13:53;;;;;;;27.93;15.83;;;;;;;;;;5055802;28;20404;-75
2022/03/03 06:16:19;;;;;;;26.37;15.33;;;;;;;;;;5055754;28;20805;-74
2022/03/03 06:18:46;;;;;;;25.87;14.47;;;;;;;;;;5055577;28;20404;-77
2022/03/03 06:21:12;;;;;;;31.30;16.13;;;;;;;;;;5055557;28;20424;-77
2022/03/03 06:23:38;;;;;;;25.63;15.63;;;;;;;;;;5055627;28;20425;-76
2022/03/03 06:26:05;;;;;;;24.60;15.47;;;;;;;;;;5055369;28;20498;-77
2022/03/03 06:28:32;;;;;;;28.93;16.23;;;;;;;;;;5055323;28;20404;-76
2022/03/03 06:30:58;;;;;;;27.47;16.43;;;;;;;;;;5055302;28;20407;-75
2022/03/03 06:33:25;;;;;;;28.30;16.00;;;;;;;;;;5055444;28;20402;-76
2022/03/03 06:35:51;;;;;;;33.13;16.47;;;;;;;;;;5055450;28;20525;-76
2022/03/03 06:38:17;;;;;;;26.10;16.10;;;;;;;;;;5055054;28;20901;-76
2022/03/03 06:40:43;;;;;;;25.63;15.60;;;;;;;;;;5055151;28;20455;-73
2022/03/03 06:43:09;;;;;;;29.70;15.57;;;;;;;;;;5055196;28;20408;-78
2022/03/03 06:45:35;;;;;;;24.07;15.00;;;;;;;;;;5055325;28;20466;-76
2022/03/03 06:48:04;;;;;;;28.13;15.87;;;;;;;;;;5055319;28;20403;-64
2022/03/03 06:50:30;;;;;;;29.27;15.50;;;;;;;;;;5055076;28;20412;-72
2022/03/03 06:52:56;;;;;;;25.87;15.27;;;;;;;;;;5055098;28;20418;-69
2022/03/03 06:55:23;;;;;;;25.43;15.60;;;;;;;;;;5053793;28;20415;-72
2022/03/03 06:57:51;;;;;;;27.57;16.00;;;;;;;;;;5054982;28;20521;-74
2022/03/03 07:00:18;;;;;;;30.07;16.10;;;;;;;;;;5054818;28;20529;-76
2022/03/03 07:02:46;;;;;;;27.53;15.20;;;;;;;;;;5054989;28;20769;-76
2022/03/03 07:05:13;;;;;;;27.13;15.47;;;;;;;;;;5054540;28;20944;-75
2022/03/03 07:07:39;;;;;;;25.60;16.43;;;;;;;;;;5055112;28;20407;-74
2022/03/03 07:10:06;;;;;;;28.73;16.20;;;;;;;;;;5054757;28;20788;-70
2022/03/03 07:12:33;;;;;;;30.27;17.27;;;;;;;;;;5054633;28;20440;-75
2022/03/03 07:14:59;;;;;;;23.93;15.97;;;;;;;;;;5054740;28;21017;-77
2022/03/03 07:17:44;;;;;;;30.70;17.00;;;;;;;;;;5054586;28;20902;-74
2022/03/03 07:20:13;;;;;;;32.03;16.37;;;;;;;;;;5054494;28;20891;-60
2022/03/03 07:23:03;;;;;;;36.93;17.60;;;;;;;;;;5054428;28;20417;-66
2022/03/03 07:25:38;;;;;;;29.30;15.40;;;;;;;;;;5053814;28;20823;-61
2022/03/03 07:28:06;;;;;;;38.00;18.80;;;;;;;;;;5054521;28;20418;-61
2022/03/03 07:30:32;;;;;;;30.60;18.33;;;;;;;;;;5054254;28;20991;-61
2022/03/03 07:33:11;;;;;;;37.27;17.30;;;;;;;;;;5054167;28;20922;-66
2022/03/03 07:35:39;;;;;;;30.23;18.17;;;;;;;;;;5054334;28;20763;-67
2022/03/03 07:38:13;;;;;;;33.70;19.27;;;;;;;;;;5054262;28;20418;-61
2022/03/03 07:40:41;;;;;;;32.83;17.93;;;;;;;;;;5054300;28;20404;-63
2022/03/03 07:43:08;;;;;;;30.53;16.93;;;;;;;;;;5054333;28;20399;-62
2022/03/03 07:45:34;;;;;;;37.00;19.00;;;;;;;;;;5054459;28;20582;-74
2022/03/03 07:48:00;;;;;;;35.90;18.40;;;;;;;;;;5052851;28;20793;-78
2022/03/03 07:50:27;;;;;;;29.30;17.60;;;;;;;;;;5052176;28;20422;-78
2022/03/03 07:52:53;;;;;;;30.47;17.47;;;;;;;;;;5054127;28;20861;-77
2022/03/03 07:55:20;;;;;;;31.73;17.83;;;;;;;;;;5053866;28;20506;-79
2022/03/03 07:57:58;;;;;;;30.03;17.20;;;;;;;;;;5053809;28;20427;-73
2022/03/03 08:00:25;;;;;;;31.10;18.40;;;;;;;;;;5053837;28;20421;-66
2022/03/03 08:02:53;;;;;;;29.93;18.00;;;;;;;;;;5053954;28;20424;-77
2022/03/03 08:05:20;;;;;;;32.63;17.20;;;;;;;;;;5053403;28;20566;-77
2022/03/03 08:07:47;;;;;;;45.60;20.80;;;;;;;;;;5053687;28;20423;-77
2022/03/03 08:10:13;;;;;;;32.53;18.37;;;;;;;;;;5053586;28;20404;-75
2022/03/03 08:12:40;;;;;;;30.03;18.47;;;;;;;;;;5053882;28;20412;-74
2022/03/03 08:15:07;;;;;;;28.87;18.60;;;;;;;;;;5053760;28;20586;-76
2022/03/03 08:17:34;;;;;;;36.80;18.70;;;;;;;;;;5052472;28;20392;-73
2022/03/03 08:20:02;;;;;;;33.73;18.17;;;;;;;;;;5053637;28;20440;-72
2022/03/03 08:22:29;;;;;;;29.00;18.90;;;;;;;;;;5053633;28;20382;-68
2022/03/03 08:24:56;;;;;;;35.70;19.10;;;;;;;;;;5053524;28;20473;-68
2022/03/03 08:27:24;;;;;;;35.23;20.17;;;;;;;;;;5053505;28;20445;-75
2022/03/03 08:29:51;;;;;;;34.90;19.30;;;;;;;;;;5053338;28;20400;-72
2022/03/03 08:32:17;;;;;;;30.70;19.13;;;;;;;;;;5053385;28;20418;-66
2022/03/03 08:34:53;;;;;;;34.90;20.57;;;;;;;;;;5053465;28;20429;-67
2022/03/03 08:37:24;;;;;;;34.27;20.30;;;;;;;;;;5054832;28;20921;-73
2022/03/03 08:39:53;;;;;;;34.17;18.00;;;;;;;;;;5052188;28;20474;-79
2022/03/03 08:42:23;;;;;;;31.80;19.60;;;;;;;;;;5053225;28;20405;-79
2022/03/03 08:44:52;;;;;;;31.50;18.57;;;;;;;;;;5053356;28;20391;-74
2022/03/03 08:47:18;;;;;;;36.90;19.60;;;;;;;;;;5053297;28;20503;-72
2022/03/03 08:49:45;;;;;;;33.57;19.53;;;;;;;;;;5053098;28;20886;-77
2022/03/03 08:52:11;;;;;;;41.07;20.20;;;;;;;;;;5053040;28;20961;-79
2022/03/03 08:54:37;;;;;;;39.67;20.27;;;;;;;;;;5053027;28;20415;-80
2022/03/03 08:57:03;;;;;;;36.57;20.90;;;;;;;;;;5053005;28;20510;-72
2022/03/03 08:59:29;;;;;;;38.27;19.97;;;;;;;;;;5051825;28;20431;-74
2022/03/03 09:01:56;;;;;;;32.57;19.93;;;;;;;;;;5054552;28;20505;-74
2022/03/03 09:04:23;;;;;;;36.33;19.07;;;;;;;;;;5057126;28;20916;-73
2022/03/03 09:06:49;;;;;;;39.07;19.67;;;;;;;;;;5056924;28;21056;-77
2022/03/03 09:09:15;;;;;;;34.20;20.23;;;;;;;;;;5056944;28;20410;-75
2022/03/03 09:11:41;;;;;;;31.60;18.40;;;;;;;;;;5056986;28;20757;-78
2022/03/03 09:14:07;;;;;;;36.03;20.20;;;;;;;;;;5056971;28;20407;-79
2022/03/03 09:16:34;;;;;;;46.63;22.83;;;;;;;;;;5055644;28;20426;-75
2022/03/03 09:19:00;;;;;;;33.20;20.37;;;;;;;;;;5056952;28;20968;-77
2022/03/03 09:21:28;;;;;;;37.53;20.27;;;;;;;;;;5056823;28;20853;-75
2022/03/03 09:23:54;;;;;;;38.73;20.97;;;;;;;;;;5057001;28;20398;-75
2022/03/03 09:26:20;;;;;;;35.37;19.10;;;;;;;;;;5056546;28;20564;-78
2022/03/03 09:28:46;;;;;;;34.20;19.60;;;;;;;;;;5057050;28;20515;-70
2022/03/03 09:31:12;;;;;;;39.93;19.53;;;;;;;;;;5058154;28;20502;-73
2022/03/03 09:33:38;;;;;;;39.13;20.70;;;;;;;;;;5056785;28;20448;-74
2022/03/03 09:36:04;;;;;;;36.20;20.93;;;;;;;;;;5055766;28;20837;-73
2022/03/03 09:38:30;;;;;;;32.50;19.90;;;;;;;;;;5056506;28;20402;-72
2022/03/03 09:40:56;;;;;;;31.70;18.13;;;;;;;;;;5056756;28;20422;-77
2022/03/03 09:43:23;;;;;;;34.00;19.93;;;;;;;;;;5056536;28;20407;-70
2022/03/03 09:45:50;;;;;;;34.00;21.27;;;;;;;;;;5056360;28;20699;-74
2022/03/03 09:48:16;;;;;;;34.80;22.00;;;;;;;;;;5056365;28;20444;-75
2022/03/03 09:50:42;;;;;;;35.53;21.03;;;;;;;;;;5056355;28;20894;-71
2022/03/03 09:53:13;;;;;;;35.43;20.47;;;;;;;;;;5056142;28;20487;-75
2022/03/03 09:55:40;;;;;;;29.57;19.20;;;;;;;;;;5056292;28;20783;-76
2022/03/03 09:58:09;;;;;;;35.27;20.60;;;;;;;;;;5056203;28;20434;-70
2022/03/03 10:00:37;;;;;;;39.37;21.80;;;;;;;;;;5056146;28;20417;-76
2022/03/03 10:03:08;;;;;;;34.47;19.53;;;;;;;;;;5056386;28;20748;-72
2022/03/03 10:05:39;;;;;;;32.80;19.20;;;;;;;;;;5055872;28;20539;-68
2022/03/03 10:08:09;;;;;;;37.13;20.80;;;;;;;;;;5056155;28;20427;-75
2022/03/03 10:10:37;;;;;;;33.83;19.90;;;;;;;;;;5054802;28;20411;-71
2022/03/03 10:13:03;;;;;;;33.00;19.13;;;;;;;;;;5054296;28;20434;-71
2022/03/03 10:15:30;;;;;;;31.37;19.67;;;;;;;;;;5055892;28;20407;-72
2022/03/03 10:17:57;;;;;;;34.67;21.43;;;;;;;;;;5055918;28;20419;-68
2022/03/03 10:20:23;;;;;;;33.30;20.90;;;;;;;;;;5054712;28;20426;-74
2022/03/03 10:22:57;;;;;;;33.40;19.87;;;;;;;;;;5055703;28;20774;-65
2022/03/03 10:25:37;;;;;;;46.30;20.80;;;;;;;;;;5055842;28;20565;-70
2022/03/03 10:28:16;;;;;;;26.87;17.40;;;;;;;;;;5055368;28;20942;-74
2022/03/03 10:30:48;;;;;;;27.40;18.63;;;;;;;;;;5055427;28;20411;-69
2022/03/03 10:33:15;;;;;;;45.90;23.10;;;;;;;;;;5055414;28;20926;-80
2022/03/03 10:35:41;;;;;;;41.30;23.47;;;;;;;;;;5055440;28;20410;-79
2022/03/03 10:38:07;;;;;;;32.20;20.40;;;;;;;;;;5055418;28;20415;-78
2022/03/03 10:40:38;;;;;;;33.23;19.90;;;;;;;;;;5055249;28;20414;-77
2022/03/03 10:43:05;;;;;;;26.23;17.77;;;;;;;;;;5055263;28;20748;-78
2022/03/03 10:45:32;;;;;;;29.87;19.67;;;;;;;;;;5055271;28;20464;-78
2022/03/03 10:48:03;;;;;;;28.73;19.07;;;;;;;;;;5055167;28;20504;-72
2022/03/03 10:50:48;;;;;;;26.67;18.40;;;;;;;;;;5054898;28;20943;-77
2022/03/03 10:53:18;;;;;;;35.33;19.20;;;;;;;;;;5055214;28;20414;-78
2022/03/03 10:56:04;;;;;;;33.70;19.47;;;;;;;;;;5055245;28;20903;-81
2022/03/03 10:58:45;;;;;;;29.37;19.07;;;;;;;;;;5055147;28;20413;-72
2022/03/03 11:01:12;;;;;;;30.23;18.53;;;;;;;;;;5055067;28;20407;-74
2022/03/03 11:03:39;;;;;;;33.00;17.67;;;;;;;;;;5054961;28;20420;-78
2022/03/03 11:06:06;;;;;;;30.67;18.10;;;;;;;;;;5054681;28;20553;-78
2022/03/03 11:08:33;;;;;;;28.30;17.93;;;;;;;;;;5054945;28;20407;-79
2022/03/03 11:10:59;;;;;;;35.10;18.87;;;;;;;;;;5055035;28;20439;-78
2022/03/03 11:13:25;;;;;;;28.17;17.80;;;;;;;;;;5054935;28;20745;-76
2022/03/03 11:15:52;;;;;;;28.20;17.67;;;;;;;;;;5054765;28;20413;-77
2022/03/03 11:18:19;;;;;;;29.13;18.00;;;;;;;;;;5054786;28;20410;-78
2022/03/03 11:20:51;;;;;;;36.50;18.30;;;;;;;;;;5054717;28;20432;-78
2022/03/03 11:23:17;;;;;;;29.30;17.80;;;;;;;;;;5054615;28;20419;-78
2022/03/03 11:25:47;;;;;;;26.60;16.93;;;;;;;;;;5053821;28;20468;-66
2022/03/03 11:28:14;;;;;;;28.07;18.27;;;;;;;;;;5055517;28;20563;-70
2022/03/03 11:30:41;;;;;;;27.93;18.37;;;;;;;;;;5055809;28;20413;-77
2022/03/03 11:33:27;;;;;;;27.70;17.40;;;;;;;;;;5057029;28;20463;-77
2022/03/03 11:35:53;;;;;;;28.63;17.80;;;;;;;;;;5055319;28;20809;-77
2022/03/03 11:38:20;;;;;;;30.50;18.53;;;;;;;;;;5055105;28;20759;-76
2022/03/03 11:41:06;;;;;;;27.43;16.63;;;;;;;;;;5055941;28;20418;-78
2022/03/03 11:43:44;;;;;;;27.90;18.70;;;;;;;;;;5055372;28;20414;-78
2022/03/03 11:46:10;;;;;;;26.20;17.40;;;;;;;;;;5056544;28;20459;-72
2022/03/03 11:48:37;;;;;;;28.80;17.63;;;;;;;;;;5054584;28;20412;-65
2022/03/03 11:51:22;;;;;;;32.10;18.03;;;;;;;;;;5052724;28;20464;-62
2022/03/03 11:53:49;;;;;;;28.83;17.77;;;;;;;;;;5054122;28;20870;-65
2022/03/03 11:56:15;;;;;;;25.97;18.00;;;;;;;;;;5053913;28;20773;-61
2022/03/03 11:58:41;;;;;;;28.00;18.43;;;;;;;;;;5054047;28;20402;-63
2022/03/03 12:01:09;;;;;;;29.37;18.00;;;;;;;;;;5053785;28;20414;-62
2022/03/03 12:03:53;;;;;;;26.10;17.60;;;;;;;;;;5053835;28;20421;-63
2022/03/03 12:06:23;;;;;;;29.33;17.80;;;;;;;;;;5053511;28;20477;-61
2022/03/03 12:08:49;;;;;;;27.70;18.20;;;;;;;;;;5053640;28;20440;-63
2022/03/03 12:11:16;;;;;;;30.07;18.60;;;;;;;;;;5053621;28;20414;-62
2022/03/03 12:13:47;;;;;;;26.77;17.50;;;;;;;;;;5053626;28;20401;-64
2022/03/03 12:16:21;;;;;;;30.93;18.00;;;;;;;;;;5053684;28;20409;-64
2022/03/03 12:19:05;;;;;;;33.40;19.67;;;;;;;;;;5053615;28;20454;-63
2022/03/03 12:21:40;;;;;;;29.40;17.23;;;;;;;;;;5053474;28;20423;-65
2022/03/03 12:24:14;;;;;;;25.53;16.60;;;;;;;;;;5054528;28;20746;-77
2022/03/03 12:29:32;;;;;;;33.40;18.27;;;;;;;;;;5053400;28;20401;-78
2022/03/03 12:31:58;;;;;;;28.33;16.47;;;;;;;;;;5053394;28;20955;-76
2022/03/03 12:34:25;;;;;;;24.10;15.50;;;;;;;;;;5053369;28;20414;-62
2022/03/03 12:36:54;;;;;;;26.73;17.10;;;;;;;;;;5053191;28;20505;-65
2022/03/03 12:39:20;;;;;;;29.07;17.20;;;;;;;;;;5053447;28;20440;-66
2022/03/03 12:41:46;;;;;;;26.67;16.80;;;;;;;;;;5053062;28;20918;-63
2022/03/03 12:44:14;;;;;;;26.80;16.50;;;;;;;;;;5051834;28;20491;-66
2022/03/03 12:46:41;;;;;;;27.40;17.00;;;;;;;;;;5053197;28;20480;-63
2022/03/03 12:49:08;;;;;;;26.20;17.00;;;;;;;;;;5053115;28;20402;-64
2022/03/03 12:51:35;;;;;;;28.07;17.77;;;;;;;;;;5053134;28;20465;-62
2022/03/03 12:54:05;;;;;;;30.27;16.60;;;;;;;;;;5052995;28;20416;-72
2022/03/03 12:56:31;;;;;;;38.30;19.57;;;;;;;;;;5052778;28;20437;-72
2022/03/03 12:59:06;;;;;;;31.13;18.50;;;;;;;;;;5053015;28;20491;-77
2022/03/03 13:01:32;;;;;;;28.83;18.47;;;;;;;;;;5051755;28;20413;-70
2022/03/03 13:04:03;;;;;;;26.53;18.23;;;;;;;;;;5053085;28;20398;-64
2022/03/03 13:06:30;;;;;;;33.50;19.90;;;;;;;;;;5052767;28;20489;-64
2022/03/03 13:09:00;;;;;;;39.20;19.40;;;;;;;;;;5053028;28;20492;-65
2022/03/03 13:11:27;;;;;;;30.67;18.50;;;;;;;;;;5052804;28;20406;-67
2022/03/03 13:13:58;;;;;;;34.20;18.97;;;;;;;;;;5052973;28;20408;-61
2022/03/03 13:16:26;;;;;;;30.27;19.20;;;;;;;;;;5053057;28;20417;-67
2022/03/03 13:18:52;;;;;;;25.50;16.10;;;;;;;;;;5052976;28;20475;-63
2022/03/03 13:21:19;;;;;;;28.43;17.80;;;;;;;;;;5053419;28;20772;-73
2022/03/03 13:23:50;;;;;;;32.10;19.40;;;;;;;;;;5052773;28;20417;-77
2022/03/03 13:26:27;;;;;;;28.10;17.90;;;;;;;;;;5052712;28;20476;-76
2022/03/03 13:29:00;;;;;;;32.23;18.70;;;;;;;;;;5052793;28;20899;-74
2022/03/03 13:31:26;;;;;;;30.17;18.40;;;;;;;;;;5051534;28;20514;-78
2022/03/03 13:33:56;;;;;;;34.37;20.80;;;;;;;;;;5052959;28;20393;-73
2022/03/03 13:36:27;;;;;;;33.37;19.50;;;;;;;;;;5052710;28;20429;-77
2022/03/03 13:38:54;;;;;;;39.13;22.23;;;;;;;;;;5052787;28;20417;-75
2022/03/03 13:41:26;;;;;;;32.40;19.50;;;;;;;;;;5052750;28;20416;-77
2022/03/03 13:44:08;;;;;;;31.50;20.30;;;;;;;;;;5052772;28;20404;-78
2022/03/03 13:46:35;;;;;;;38.07;20.70;;;;;;;;;;5052724;28;20469;-75
2022/03/03 13:49:01;;;;;;;34.10;20.70;;;;;;;;;;5055574;28;20398;-74
2022/03/03 13:51:27;;;;;;;34.80;20.77;;;;;;;;;;5056397;28;20996;-75
2022/03/03 13:53:57;;;;;;;35.93;21.53;;;;;;;;;;5056374;28;20420;-71
2022/03/03 13:56:30;;;;;;;36.70;21.90;;;;;;;;;;5056181;28;20437;-76
2022/03/03 13:59:10;;;;;;;32.90;19.70;;;;;;;;;;5056128;28;20398;-72
2022/03/03 14:01:40;;;;;;;34.40;20.10;;;;;;;;;;5056156;28;20425;-63
2022/03/03 14:04:21;;;;;;;35.80;21.57;;;;;;;;;;5054989;28;20406;-71
2022/03/03 14:06:47;;;;;;;37.77;20.27;;;;;;;;;;5055864;28;20489;-72
2022/03/03 14:09:23;;;;;;;36.90;22.30;;;;;;;;;;5056036;28;20858;-64
2022/03/03 14:11:49;;;;;;;35.20;21.53;;;;;;;;;;5055895;28;20428;-67
2022/03/03 14:14:19;;;;;;;35.77;21.37;;;;;;;;;;5055920;28;20409;-64
2022/03/03 14:16:45;;;;;;;33.40;19.60;;;;;;;;;;5055931;28;20441;-62
2022/03/03 14:19:11;;;;;;;32.23;16.97;;;;;;;;;;5056105;28;20851;-75
2022/03/03 14:21:39;;;;;;;31.73;18.57;;;;;;;;;;5055996;28;20410;-74
2022/03/03 14:24:05;;;;;;;35.90;20.10;;;;;;;;;;5055842;28;20425;-77